PAJN/JNU METAR and TAF weather

Enter ICAO airport designator
Station Type Date Time Source
PAJN METAR 2022/06/30 01:53 UTC NOAA

PAJN 300153Z VRB06KT 10SM BKN042 BKN100 BKN350 22/12 A3012 RMK AO2 SLP198 T02170122


Station Type Date Time Source
PAJN Decoded METAR 2022/06/30 01:53 UTC NOAA

JUNEAU INTERNATIONAL AIRPORT, AK, United States (PAJN) 58-21N 134-34W 8M
Jun 29, 2022 - 09:53 PM EDT / 2022.06.30 0153 UTC
Wind: Variable at 7 MPH (6 KT):0
Visibility: 10 mile(s):0
Sky conditions: mostly cloudy
Temperature: 71.1 F (21.7 C)
Dew Point: 54.0 F (12.2 C)
Relative Humidity: 54%
Pressure (altimeter): 30.12 in. Hg (1019 hPa)
ob: PAJN 300153Z VRB06KT 10SM BKN042 BKN100 BKN350 22/12 A3012 RMK AO2 SLP198 T02170122
cycle: 2

Station Type Date Time Source
PAJN TAF 2022/06/29 18:33 UTC NOAA

TAF PAJN 291730Z 2918/3018 25005KT P6SM BKN100
FM300900 11002KT P6SM OVC050

Example: see airport list